Terminal Aerodrome Forecast
Issued by NWS North Platte, NE

Home | Current Version | Previous Version | Graphics & Text | Print | Product List | Glossary On
Versions: 1 2 3 4 5 6 7 8 9 10 11 12 13 14 15 16
000
FTUS43 KLBF 311100 RRA
TAFVTN
TAF
KVTN 311143Z 3112/0112 15010KT P6SM SCT120 BKN200
     FM311400 16013G20KT P6SM BKN100
     FM311900 16016G23KT P6SM SCT060 BKN200
     FM010100 15011KT P6SM SCT070=

USA.gov is the U.S. government's official web portal to all federal, state and local government web resources and services.